sensor_id;sensor_type;location;lat;lon;timestamp;pressure;altitude;pressure_sealevel;temperature
49557;BMP280;35462;45.048;7.666;2023-12-28T00:06:25;99958.75;;;11.76
49557;BMP280;35462;45.048;7.666;2023-12-28T00:21:45;99948.91;;;11.70
49557;BMP280;35462;45.048;7.666;2023-12-28T00:37:04;99945.88;;;11.68
49557;BMP280;35462;45.048;7.666;2023-12-28T00:52:23;99947.38;;;11.69
49557;BMP280;35462;45.048;7.666;2023-12-28T01:07:43;99942.47;;;11.68
49557;BMP280;35462;45.048;7.666;2023-12-28T01:23:03;99945.13;;;11.68
49557;BMP280;35462;45.048;7.666;2023-12-28T01:38:22;99947.75;;;11.71
49557;BMP280;35462;45.048;7.666;2023-12-28T01:53:43;99954.59;;;11.72
49557;BMP280;35462;45.048;7.666;2023-12-28T02:09:02;99947.75;;;11.71
49557;BMP280;35462;45.048;7.666;2023-12-28T02:24:22;99950.44;;;11.74
49557;BMP280;35462;45.048;7.666;2023-12-28T02:39:42;99939.84;;;11.81
49557;BMP280;35462;45.048;7.666;2023-12-28T02:55:03;99930.00;;;11.75
49557;BMP280;35462;45.048;7.666;2023-12-28T03:10:23;99911.00;;;11.76
49557;BMP280;35462;45.048;7.666;2023-12-28T03:25:42;99903.41;;;11.54
49557;BMP280;35462;45.048;7.666;2023-12-28T03:41:01;99889.38;;;11.57
49557;BMP280;35462;45.048;7.666;2023-12-28T03:56:22;99896.97;;;11.69
49557;BMP280;35462;45.048;7.666;2023-12-28T04:11:42;99883.34;;;11.67
49557;BMP280;35462;45.048;7.666;2023-12-28T04:27:03;99890.91;;;11.65
49557;BMP280;35462;45.048;7.666;2023-12-28T04:42:22;99893.59;;;11.69
49557;BMP280;35462;45.048;7.666;2023-12-28T04:57:42;99892.06;;;11.64
49557;BMP280;35462;45.048;7.666;2023-12-28T05:13:01;99909.09;;;11.67
49557;BMP280;35462;45.048;7.666;2023-12-28T05:28:20;99923.84;;;11.43
49557;BMP280;35462;45.048;7.666;2023-12-28T05:43:40;99904.94;;;11.62
49557;BMP280;35462;45.048;7.666;2023-12-28T05:59:00;99902.28;;;11.76
49557;BMP280;35462;45.048;7.666;2023-12-28T06:14:19;99903.81;;;11.73
49557;BMP280;35462;45.048;7.666;2023-12-28T06:29:38;99925.03;;;11.77
49557;BMP280;35462;45.048;7.666;2023-12-28T06:44:58;99930.31;;;11.63
49557;BMP280;35462;45.048;7.666;2023-12-28T07:00:17;99945.09;;;11.54
49557;BMP280;35462;45.048;7.666;2023-12-28T07:15:37;99937.09;;;11.43
49557;BMP280;35462;45.048;7.666;2023-12-28T07:30:56;99951.53;;;11.46
49557;BMP280;35462;45.048;7.666;2023-12-28T07:46:16;99951.53;;;11.49
49557;BMP280;35462;45.048;7.666;2023-12-28T08:01:36;99963.66;;;11.57
49557;BMP280;35462;45.048;7.666;2023-12-28T08:16:55;99967.06;;;11.47
49557;BMP280;35462;45.048;7.666;2023-12-28T08:32:15;99973.91;;;11.62
49557;BMP280;35462;45.048;7.666;2023-12-28T08:47:34;99987.19;;;11.66
49557;BMP280;35462;45.048;7.666;2023-12-28T09:02:54;99990.28;;;11.81
49557;BMP280;35462;45.048;7.666;2023-12-28T09:18:13;100004.31;;;11.89
49557;BMP280;35462;45.048;7.666;2023-12-28T09:33:33;100029.72;;;12.04
49557;BMP280;35462;45.048;7.666;2023-12-28T09:48:52;100038.06;;;12.06
49557;BMP280;35462;45.048;7.666;2023-12-28T10:04:16;100024.41;;;12.25
49557;BMP280;35462;45.048;7.666;2023-12-28T10:19:37;99998.59;;;12.46
49557;BMP280;35462;45.048;7.666;2023-12-28T10:34:56;99989.84;;;12.60
49557;BMP280;35462;45.048;7.666;2023-12-28T10:50:16;99956.75;;;12.81
49557;BMP280;35462;45.048;7.666;2023-12-28T11:05:37;99942.66;;;12.91
49557;BMP280;35462;45.048;7.666;2023-12-28T11:21:00;99930.47;;;13.01
49557;BMP280;35462;45.048;7.666;2023-12-28T11:36:48;99916.72;;;13.13
49557;BMP280;35462;45.048;7.666;2023-12-28T11:52:09;99897.28;;;13.23
49557;BMP280;35462;45.048;7.666;2023-12-28T12:07:30;99883.91;;;13.33
49557;BMP280;35462;45.048;7.666;2023-12-28T12:22:49;99882.38;;;13.39
49557;BMP280;35462;45.048;7.666;2023-12-28T12:38:09;99853.88;;;13.36
49557;BMP280;35462;45.048;7.666;2023-12-28T12:53:37;99839.69;;;13.53
49557;BMP280;35462;45.048;7.666;2023-12-28T13:08:57;99816.41;;;13.60
49557;BMP280;35462;45.048;7.666;2023-12-28T13:24:17;99808.13;;;13.52
49557;BMP280;35462;45.048;7.666;2023-12-28T13:39:37;99796.78;;;13.44
49557;BMP280;35462;45.048;7.666;2023-12-28T13:54:57;99781.31;;;13.32
49557;BMP280;35462;45.048;7.666;2023-12-28T14:10:16;99798.50;;;13.21
49557;BMP280;35462;45.048;7.666;2023-12-28T14:25:36;99794.78;;;13.11
49557;BMP280;35462;45.048;7.666;2023-12-28T14:40:56;99789.94;;;12.99
49557;BMP280;35462;45.048;7.666;2023-12-28T14:56:16;99808.56;;;12.92
49557;BMP280;35462;45.048;7.666;2023-12-28T15:11:36;99775.22;;;12.84
49557;BMP280;35462;45.048;7.666;2023-12-28T15:26:56;99802.59;;;12.78
49557;BMP280;35462;45.048;7.666;2023-12-28T15:42:18;99791.63;;;12.65
49557;BMP280;35462;45.048;7.666;2023-12-28T15:57:38;99767.06;;;12.48
49557;BMP280;35462;45.048;7.666;2023-12-28T16:12:57;99787.25;;;12.35
49557;BMP280;35462;45.048;7.666;2023-12-28T16:28:18;99799.38;;;12.36
49557;BMP280;35462;45.048;7.666;2023-12-28T16:43:37;99802.78;;;12.40
49557;BMP280;35462;45.048;7.666;2023-12-28T16:58:57;99785.75;;;12.34
49557;BMP280;35462;45.048;7.666;2023-12-28T17:14:17;99771.78;;;12.16
49557;BMP280;35462;45.048;7.666;2023-12-28T17:29:36;99782.41;;;12.05
49557;BMP280;35462;45.048;7.666;2023-12-28T17:44:58;99780.53;;;11.99
49557;BMP280;35462;45.048;7.666;2023-12-28T18:00:18;99788.53;;;11.95
49557;BMP280;35462;45.048;7.666;2023-12-28T18:15:38;99804.44;;;11.85
49557;BMP280;35462;45.048;7.666;2023-12-28T18:30:57;99801.44;;;11.69
49557;BMP280;35462;45.048;7.666;2023-12-28T18:46:17;99793.09;;;11.64
49557;BMP280;35462;45.048;7.666;2023-12-28T19:01:36;99772.66;;;11.64
49557;BMP280;35462;45.048;7.666;2023-12-28T19:16:55;99788.94;;;11.59
49557;BMP280;35462;45.048;7.666;2023-12-28T19:32:18;99786.31;;;11.66
49557;BMP280;35462;45.048;7.666;2023-12-28T19:47:38;99785.53;;;11.62
49557;BMP280;35462;45.048;7.666;2023-12-28T20:02:58;99766.97;;;11.62
49557;BMP280;35462;45.048;7.666;2023-12-28T20:18:17;99756.34;;;11.62
49557;BMP280;35462;45.048;7.666;2023-12-28T20:33:37;99754.09;;;11.54
49557;BMP280;35462;45.048;7.666;2023-12-28T20:48:57;99745.78;;;11.48
49557;BMP280;35462;45.048;7.666;2023-12-28T21:04:17;99743.88;;;11.31
49557;BMP280;35462;45.048;7.666;2023-12-28T21:19:38;99753.72;;;11.20
49557;BMP280;35462;45.048;7.666;2023-12-28T21:34:57;99743.09;;;11.06
49557;BMP280;35462;45.048;7.666;2023-12-28T21:50:16;99769.59;;;10.96
49557;BMP280;35462;45.048;7.666;2023-12-28T22:05:36;99766.19;;;10.95
49557;BMP280;35462;45.048;7.666;2023-12-28T22:20:58;99762.81;;;11.09
49557;BMP280;35462;45.048;7.666;2023-12-28T22:36:18;99762.06;;;11.15
49557;BMP280;35462;45.048;7.666;2023-12-28T22:51:37;99756.75;;;11.19
49557;BMP280;35462;45.048;7.666;2023-12-28T23:06:57;99732.91;;;11.05
49557;BMP280;35462;45.048;7.666;2023-12-28T23:22:16;99723.41;;;10.93
49557;BMP280;35462;45.048;7.666;2023-12-28T23:37:39;99706.75;;;10.75
49557;BMP280;35462;45.048;7.666;2023-12-28T23:52:59;99694.22;;;10.55
